createdAt,value
2022-08-02T00:01:43.681Z,22.17
2022-08-02T00:04:11.308Z,22.04
2022-08-02T00:06:39.221Z,21.88
2022-08-02T00:09:06.208Z,21.76
2022-08-02T00:11:34.003Z,21.70
2022-08-02T00:14:01.033Z,21.72
2022-08-02T00:16:37.398Z,21.72
2022-08-02T00:19:06.274Z,21.64
2022-08-02T00:21:33.169Z,21.62
2022-08-02T00:24:27.755Z,21.55
2022-08-02T00:26:46.955Z,21.65
2022-08-02T00:29:13.805Z,21.61
2022-08-02T00:31:40.839Z,21.57
2022-08-02T00:34:30.466Z,21.55
2022-08-02T00:36:55.147Z,21.58
2022-08-02T00:39:34.665Z,21.51
2022-08-02T00:42:03.646Z,21.43
2022-08-02T00:44:30.676Z,21.43
2022-08-02T00:46:57.576Z,21.44
2022-08-02T00:49:24.537Z,21.52
2022-08-02T00:51:51.743Z,21.53
2022-08-02T00:54:19.989Z,21.55
2022-08-02T00:56:50.038Z,21.39
2022-08-02T00:59:19.051Z,21.25
2022-08-02T01:01:54.809Z,21.19
2022-08-02T01:04:30.303Z,21.25
2022-08-02T01:07:13.079Z,21.27
2022-08-02T01:09:45.477Z,21.22
2022-08-02T01:12:13.624Z,21.20
2022-08-02T01:14:46.040Z,21.06
2022-08-02T01:17:19.641Z,21.03
2022-08-02T01:20:31.949Z,20.85
2022-08-02T01:23:04.739Z,20.73
2022-08-02T01:26:02.081Z,20.67
2022-08-02T01:28:53.388Z,20.82
2022-08-02T01:31:48.794Z,20.92
2022-08-02T01:34:46.927Z,20.82
2022-08-02T01:37:28.631Z,20.66
2022-08-02T01:40:06.601Z,20.54
2022-08-02T01:42:34.818Z,20.40
2022-08-02T01:45:04.476Z,20.34
2022-08-02T01:47:37.190Z,20.27
2022-08-02T01:50:09.252Z,20.35
2022-08-02T01:52:53.513Z,20.38
2022-08-02T01:55:33.530Z,20.45
2022-08-02T01:58:18.962Z,20.42
2022-08-02T02:00:48.295Z,20.55
2022-08-02T02:03:22.034Z,20.63
2022-08-02T02:05:52.404Z,20.43
2022-08-02T02:08:26.938Z,20.33
2022-08-02T02:10:57.658Z,20.37
2022-08-02T02:13:45.364Z,20.27
2022-08-02T02:16:15.300Z,20.18
2022-08-02T02:18:44.920Z,20.10
2022-08-02T02:21:13.125Z,20.16
2022-08-02T02:23:40.717Z,20.26
2022-08-02T02:26:13.619Z,20.30
2022-08-02T02:28:43.242Z,20.24
2022-08-02T02:31:15.818Z,19.98
2022-08-02T02:34:02.402Z,19.97
2022-08-02T02:36:33.350Z,19.97
2022-08-02T02:39:10.201Z,19.76
2022-08-02T02:41:43.476Z,19.62
2022-08-02T02:44:18.474Z,19.69
2022-08-02T02:46:49.439Z,19.87
2022-08-02T02:49:18.998Z,19.90
2022-08-02T02:51:47.693Z,19.79
2022-08-02T02:54:30.450Z,19.81
2022-08-02T02:57:04.268Z,19.88
2022-08-02T02:59:33.958Z,19.87
2022-08-02T03:02:01.851Z,19.94
2022-08-02T03:04:55.578Z,19.90
2022-08-02T03:07:19.186Z,19.81
2022-08-02T03:09:53.801Z,19.72
2022-08-02T03:12:30.187Z,19.61
2022-08-02T03:15:01.716Z,19.53
2022-08-02T03:17:46.276Z,19.46
2022-08-02T03:20:20.376Z,19.43
2022-08-02T03:22:47.637Z,19.46
2022-08-02T03:25:17.822Z,19.46
2022-08-02T03:27:45.034Z,19.49
2022-08-02T03:30:14.458Z,19.56
2022-08-02T03:32:44.982Z,19.67
2022-08-02T03:35:18.539Z,19.63
2022-08-02T03:37:52.072Z,19.63
2022-08-02T03:40:19.440Z,19.55
2022-08-02T03:42:47.836Z,19.61
2022-08-02T03:45:15.098Z,19.57
2022-08-02T03:47:44.548Z,19.42
2022-08-02T03:50:13.649Z,19.26
2022-08-02T03:52:43.032Z,19.24
2022-08-02T03:55:12.536Z,19.21
2022-08-02T03:57:42.249Z,19.32
2022-08-02T04:00:13.302Z,19.21
2022-08-02T04:02:40.376Z,19.20
2022-08-02T04:05:07.997Z,19.28
2022-08-02T04:08:32.581Z,19.31
2022-08-02T04:10:21.648Z,19.25
2022-08-02T04:12:48.596Z,19.26
2022-08-02T04:15:15.960Z,19.13
2022-08-02T04:17:52.923Z,19.05
2022-08-02T04:20:27.404Z,18.97
2022-08-02T04:23:08.316Z,19.06
2022-08-02T04:25:40.123Z,19.06
2022-08-02T04:28:16.709Z,19.01
2022-08-02T04:30:48.214Z,19.30
2022-08-02T04:33:16.419Z,19.05
2022-08-02T04:35:44.533Z,19.20
2022-08-02T04:38:14.690Z,19.22
2022-08-02T04:40:50.917Z,19.20
2022-08-02T04:43:18.645Z,19.02
2022-08-02T04:45:49.515Z,18.92
2022-08-02T04:48:16.363Z,19.02
2022-08-02T04:50:43.300Z,19.14
2022-08-02T04:53:10.203Z,19.16
2022-08-02T04:55:37.059Z,19.08
2022-08-02T04:58:18.338Z,19.14
2022-08-02T05:00:51.017Z,19.11
2022-08-02T05:03:17.901Z,19.17
2022-08-02T05:05:44.768Z,19.25
2022-08-02T05:08:11.657Z,19.19
2022-08-02T05:10:38.565Z,19.17
2022-08-02T05:13:06.132Z,19.25
2022-08-02T05:15:33.555Z,19.32
2022-08-02T05:18:00.520Z,19.34
2022-08-02T05:20:27.715Z,19.42
2022-08-02T05:22:54.721Z,19.50
2022-08-02T05:25:21.615Z,19.53
2022-08-02T05:27:48.520Z,19.48
2022-08-02T05:30:15.567Z,19.48
2022-08-02T05:32:50.514Z,19.36
2022-08-02T05:35:20.285Z,19.48
2022-08-02T05:37:48.366Z,19.66
2022-08-02T05:40:16.035Z,19.79
2022-08-02T05:42:43.465Z,19.90
2022-08-02T05:45:11.340Z,19.79
2022-08-02T05:47:39.033Z,19.78
2022-08-02T05:50:10.530Z,19.73
2022-08-02T05:52:56.710Z,19.83
2022-08-02T05:55:40.243Z,19.82
2022-08-02T05:58:27.796Z,19.97
2022-08-02T06:00:58.857Z,20.00
2022-08-02T06:03:41.330Z,20.08
2022-08-02T06:06:22.704Z,20.04
2022-08-02T06:09:02.387Z,20.27
2022-08-02T06:12:00.736Z,20.34
2022-08-02T06:14:33.831Z,20.40
2022-08-02T06:17:05.108Z,20.50
2022-08-02T06:19:50.837Z,20.50
2022-08-02T06:22:32.329Z,20.59
2022-08-02T06:25:06.638Z,20.60
2022-08-02T06:27:53.845Z,20.58
2022-08-02T06:30:21.213Z,20.60
2022-08-02T06:32:52.077Z,20.71
2022-08-02T06:35:19.617Z,20.80
2022-08-02T06:37:58.459Z,20.99
2022-08-02T06:40:48.623Z,21.17
2022-08-02T06:43:34.817Z,21.21
2022-08-02T06:46:34.444Z,21.24
2022-08-02T06:48:51.026Z,21.37
2022-08-02T06:51:18.635Z,21.47
2022-08-02T06:53:46.257Z,21.46
2022-08-02T06:56:13.526Z,21.57
2022-08-02T06:58:40.452Z,21.73
2022-08-02T07:01:09.723Z,21.82
2022-08-02T07:03:41.431Z,21.94
2022-08-02T07:06:11.837Z,22.06
2022-08-02T07:08:39.492Z,22.15
2022-08-02T07:11:08.989Z,22.22
2022-08-02T07:13:39.966Z,22.34
2022-08-02T07:16:07.743Z,22.48
2022-08-02T07:18:35.610Z,22.55
2022-08-02T07:21:08.847Z,22.53
2022-08-02T07:23:36.089Z,22.47
2022-08-02T07:26:04.823Z,22.55
2022-08-02T07:28:32.841Z,22.60
2022-08-02T07:30:59.805Z,22.68
2022-08-02T07:33:37.595Z,22.68
2022-08-02T07:36:09.882Z,22.73
2022-08-02T07:38:44.084Z,22.91
2022-08-02T07:41:12.518Z,23.06
2022-08-02T07:43:39.489Z,23.28
2022-08-02T07:46:06.341Z,23.50
2022-08-02T07:48:33.487Z,23.68
2022-08-02T07:51:00.729Z,23.88
2022-08-02T07:53:50.283Z,24.03
2022-08-02T07:56:17.089Z,24.17
2022-08-02T07:58:43.940Z,24.28
2022-08-02T08:01:11.468Z,24.46
2022-08-02T08:03:38.850Z,24.63
2022-08-02T08:06:05.858Z,24.78
2022-08-02T08:08:35.079Z,24.90
2022-08-02T08:11:02.305Z,25.10
2022-08-02T08:13:29.509Z,25.17
2022-08-02T08:15:56.357Z,25.18
2022-08-02T08:18:23.318Z,25.30
2022-08-02T08:20:51.580Z,25.44
2022-08-02T08:23:18.489Z,25.67
2022-08-02T08:25:45.304Z,25.89
2022-08-02T08:28:12.720Z,26.06
2022-08-02T08:30:42.444Z,26.10
2022-08-02T08:33:09.885Z,26.24
2022-08-02T08:35:39.162Z,26.23
2022-08-02T08:38:07.906Z,26.22
2022-08-02T08:40:35.078Z,26.38
2022-08-02T08:43:01.933Z,26.80
2022-08-02T08:45:29.051Z,27.07
2022-08-02T08:48:21.758Z,27.36
2022-08-02T08:51:07.012Z,27.50
2022-08-02T08:53:42.123Z,27.65
2022-08-02T08:56:15.959Z,27.82
2022-08-02T08:58:47.230Z,27.98
2022-08-02T09:01:16.903Z,28.06
2022-08-02T09:03:45.561Z,27.96
2022-08-02T09:06:12.489Z,28.16
2022-08-02T09:08:39.401Z,28.31
2022-08-02T09:11:19.678Z,28.30
2022-08-02T09:14:05.678Z,28.46
2022-08-02T09:16:42.279Z,28.42
2022-08-02T09:19:23.599Z,28.73
2022-08-02T09:22:01.613Z,28.70
2022-08-02T09:24:31.594Z,28.72
2022-08-02T09:26:58.863Z,28.86
2022-08-02T09:29:27.424Z,29.06
2022-08-02T09:32:03.946Z,29.12
2022-08-02T09:34:52.799Z,29.39
2022-08-02T09:37:31.019Z,29.67
2022-08-02T09:40:00.695Z,29.82
2022-08-02T09:42:30.650Z,29.64
2022-08-02T09:45:01.397Z,29.71
2022-08-02T09:47:31.085Z,29.63
2022-08-02T09:49:59.179Z,29.86
2022-08-02T09:52:37.422Z,30.20
2022-08-02T09:55:11.919Z,30.22
2022-08-02T09:58:21.592Z,30.43
2022-08-02T10:01:01.179Z,30.51
2022-08-02T10:03:35.226Z,30.72
2022-08-02T10:06:04.769Z,30.75
2022-08-02T10:08:33.901Z,30.82
2022-08-02T10:11:03.138Z,31.00
2022-08-02T10:13:35.493Z,31.20
2022-08-02T10:16:03.957Z,31.32
2022-08-02T10:18:40.753Z,31.61
2022-08-02T10:21:14.909Z,31.90
2022-08-02T10:23:45.626Z,32.03
2022-08-02T10:26:19.691Z,32.04
2022-08-02T10:28:49.494Z,31.87
2022-08-02T10:31:28.345Z,31.97
2022-08-02T10:33:58.948Z,31.59
2022-08-02T10:36:29.844Z,31.80
2022-08-02T10:38:58.783Z,31.80
2022-08-02T10:41:52.348Z,32.05
2022-08-02T10:44:31.848Z,32.43
2022-08-02T10:47:18.622Z,32.43
2022-08-02T10:50:00.396Z,32.29
2022-08-02T10:52:31.516Z,32.59
2022-08-02T10:55:22.174Z,32.86
2022-08-02T10:58:18.237Z,32.66
2022-08-02T11:00:46.065Z,32.80
2022-08-02T11:03:41.166Z,33.23
2022-08-02T11:06:24.574Z,33.27
2022-08-02T11:09:33.446Z,32.85
2022-08-02T11:12:06.090Z,32.80
2022-08-02T11:14:43.209Z,33.04
2022-08-02T11:17:18.934Z,33.43
2022-08-02T11:20:10.828Z,33.80
2022-08-02T11:22:41.616Z,33.93
2022-08-02T11:25:42.982Z,34.17
2022-08-02T11:28:16.194Z,34.39
2022-08-02T11:30:46.659Z,34.15
2022-08-02T11:33:14.189Z,34.08
2022-08-02T11:35:41.438Z,34.31
2022-08-02T11:38:20.780Z,35.00
2022-08-02T11:40:49.481Z,35.90
2022-08-02T11:43:19.392Z,36.48
2022-08-02T11:45:47.485Z,36.97
2022-08-02T11:48:14.417Z,37.18
2022-08-02T11:50:41.568Z,36.85
2022-08-02T11:53:16.487Z,37.19
2022-08-02T11:55:43.502Z,37.24
2022-08-02T11:58:11.619Z,35.97
2022-08-02T12:00:39.258Z,34.30
2022-08-02T12:03:07.628Z,34.25
2022-08-02T12:06:05.307Z,35.11
2022-08-02T12:08:25.242Z,35.22
2022-08-02T12:10:52.507Z,35.77
2022-08-02T12:13:19.499Z,36.53
2022-08-02T12:15:47.443Z,36.59
2022-08-02T12:18:38.780Z,35.14
2022-08-02T12:21:27.090Z,36.05
2022-08-02T12:23:59.875Z,36.93
2022-08-02T12:26:30.080Z,37.68
2022-08-02T12:29:02.460Z,37.14
2022-08-02T12:31:56.743Z,37.54
2022-08-02T12:34:32.269Z,37.88
2022-08-02T12:37:25.330Z,38.39
2022-08-02T12:39:54.211Z,37.65
2022-08-02T12:42:21.268Z,36.02
2022-08-02T12:45:00.026Z,35.40
2022-08-02T12:47:35.657Z,34.92
2022-08-02T12:50:37.077Z,33.65
2022-08-02T12:53:14.127Z,33.14
2022-08-02T12:55:59.319Z,32.98
2022-08-02T12:58:30.359Z,33.21
2022-08-02T13:01:01.798Z,33.28
2022-08-02T13:04:10.627Z,32.88
2022-08-02T13:06:43.014Z,32.37
2022-08-02T13:09:17.139Z,31.99
2022-08-02T13:11:44.889Z,32.43
2022-08-02T13:14:14.485Z,34.25
2022-08-02T13:16:46.326Z,36.02
2022-08-02T13:19:15.651Z,36.06
2022-08-02T13:22:00.991Z,34.74
2022-08-02T13:24:40.695Z,33.66
2022-08-02T13:27:21.426Z,32.96
2022-08-02T13:29:50.599Z,32.76
2022-08-02T13:32:17.938Z,32.71
2022-08-02T13:34:45.628Z,32.67
2022-08-02T13:37:13.124Z,32.88
2022-08-02T13:39:48.145Z,33.37
2022-08-02T13:42:23.211Z,33.57
2022-08-02T13:44:50.286Z,33.19
2022-08-02T13:47:26.468Z,32.76
2022-08-02T13:50:02.942Z,32.53
2022-08-02T13:52:29.904Z,32.55
2022-08-02T13:54:56.951Z,33.68
2022-08-02T13:57:23.999Z,34.51
2022-08-02T13:59:55.865Z,34.37
2022-08-02T14:02:25.400Z,35.48
2022-08-02T14:04:52.206Z,36.39
2022-08-02T14:07:19.468Z,36.72
2022-08-02T14:09:47.699Z,36.77
2022-08-02T14:12:15.059Z,36.67
2022-08-02T14:14:42.327Z,36.07
2022-08-02T14:17:09.338Z,35.86
2022-08-02T14:19:36.381Z,36.40
2022-08-02T14:22:11.039Z,35.42
2022-08-02T14:24:39.805Z,34.25
2022-08-02T14:27:07.239Z,33.52
2022-08-02T14:29:34.721Z,33.98
2022-08-02T14:32:02.002Z,33.48
2022-08-02T14:34:29.528Z,33.16
2022-08-02T14:36:57.106Z,33.54
2022-08-02T14:39:24.242Z,34.56
2022-08-02T14:41:58.873Z,34.99
2022-08-02T14:44:28.910Z,35.12
2022-08-02T14:46:56.416Z,35.17
2022-08-02T14:49:25.919Z,35.51
2022-08-02T14:51:58.051Z,35.43
2022-08-02T14:54:30.899Z,35.00
2022-08-02T14:57:03.637Z,34.66
2022-08-02T14:59:31.100Z,34.35
2022-08-02T15:01:59.546Z,33.49
2022-08-02T15:04:27.276Z,33.22
2022-08-02T15:06:55.064Z,34.11
2022-08-02T15:09:22.228Z,34.30
2022-08-02T15:11:49.857Z,33.99
2022-08-02T15:14:25.669Z,33.79
2022-08-02T15:16:57.036Z,34.36
2022-08-02T15:19:25.811Z,34.81
2022-08-02T15:21:58.533Z,34.96
2022-08-02T15:24:30.184Z,34.94
2022-08-02T15:26:57.087Z,34.93
2022-08-02T15:29:24.083Z,34.12
2022-08-02T15:31:53.863Z,33.82
2022-08-02T15:34:20.865Z,34.01
2022-08-02T15:36:47.731Z,34.39
2022-08-02T15:39:14.544Z,34.55
2022-08-02T15:41:41.453Z,34.63
2022-08-02T15:44:09.733Z,34.49
2022-08-02T15:46:38.387Z,33.93
2022-08-02T15:49:06.772Z,33.21
2022-08-02T15:51:33.726Z,32.66
2022-08-02T15:54:00.705Z,32.30
2022-08-02T15:56:27.601Z,32.16
2022-08-02T15:58:57.005Z,31.96
2022-08-02T16:01:37.414Z,31.91
2022-08-02T16:04:07.389Z,31.83
2022-08-02T16:06:35.688Z,31.74
2022-08-02T16:09:03.728Z,31.67
2022-08-02T16:11:30.674Z,31.51
2022-08-02T16:14:02.514Z,31.43
2022-08-02T16:16:35.524Z,31.30
2022-08-02T16:19:47.083Z,31.23
2022-08-02T16:21:53.891Z,31.07
2022-08-02T16:24:21.391Z,30.89
2022-08-02T16:26:48.899Z,30.84
2022-08-02T16:29:19.117Z,30.81
2022-08-02T16:31:47.384Z,30.74
2022-08-02T16:34:15.216Z,30.66
2022-08-02T16:36:42.084Z,30.72
2022-08-02T16:39:08.953Z,30.73
2022-08-02T16:41:50.490Z,30.74
2022-08-02T16:44:27.611Z,30.72
2022-08-02T16:47:01.128Z,30.59
2022-08-02T16:50:04.205Z,30.50
2022-08-02T16:52:19.650Z,30.38
2022-08-02T16:54:49.307Z,30.30
2022-08-02T16:57:19.729Z,30.28
2022-08-02T16:59:58.208Z,30.27
2022-08-02T17:02:27.862Z,30.29
2022-08-02T17:04:55.720Z,30.25
2022-08-02T17:08:07.424Z,30.18
2022-08-02T17:10:11.708Z,30.17
2022-08-02T17:12:39.562Z,30.12
2022-08-02T17:15:53.014Z,30.09
2022-08-02T17:17:55.975Z,29.96
2022-08-02T17:20:24.306Z,29.86
2022-08-02T17:22:52.531Z,29.85
2022-08-02T17:25:20.528Z,29.89
2022-08-02T17:27:55.704Z,29.88
2022-08-02T17:30:26.832Z,29.86
2022-08-02T17:33:10.828Z,29.83
2022-08-02T17:35:43.551Z,29.75
2022-08-02T17:38:26.199Z,29.71
2022-08-02T17:40:54.675Z,29.71
2022-08-02T17:43:21.806Z,29.68
2022-08-02T17:46:01.086Z,29.65
2022-08-02T17:48:49.463Z,29.65
2022-08-02T17:51:33.177Z,29.62
2022-08-02T17:54:04.187Z,29.58
2022-08-02T17:56:31.552Z,29.53
2022-08-02T17:59:20.182Z,29.52
2022-08-02T18:02:01.115Z,29.50
2022-08-02T18:04:31.505Z,29.43
2022-08-02T18:07:03.866Z,29.39
2022-08-02T18:09:31.883Z,29.32
2022-08-02T18:11:58.897Z,29.34
2022-08-02T18:14:26.510Z,29.29
2022-08-02T18:16:53.785Z,29.28
2022-08-02T18:19:20.643Z,29.26
2022-08-02T18:21:49.447Z,29.25
2022-08-02T18:24:16.517Z,29.19
2022-08-02T18:26:43.711Z,29.15
2022-08-02T18:29:12.208Z,29.07
2022-08-02T18:31:40.192Z,29.00
2022-08-02T18:34:24.354Z,29.01
2022-08-02T18:36:51.855Z,28.92
2022-08-02T18:39:18.858Z,28.84
2022-08-02T18:41:47.978Z,28.77
2022-08-02T18:44:18.612Z,28.76
2022-08-02T18:46:46.289Z,28.72
2022-08-02T18:49:16.434Z,28.67
2022-08-02T18:51:44.581Z,28.59
2022-08-02T18:54:11.708Z,28.56
2022-08-02T18:56:39.101Z,28.49
2022-08-02T18:59:07.660Z,28.36
2022-08-02T19:01:39.523Z,28.27
2022-08-02T19:04:15.675Z,28.21
2022-08-02T19:06:54.221Z,28.13
2022-08-02T19:09:21.297Z,28.01
2022-08-02T19:11:50.369Z,27.87
2022-08-02T19:14:27.917Z,27.74
2022-08-02T19:16:57.813Z,27.56
2022-08-02T19:19:28.827Z,27.41
2022-08-02T19:22:16.277Z,27.34
2022-08-02T19:24:47.038Z,27.21
2022-08-02T19:27:15.287Z,27.11
2022-08-02T19:29:48.842Z,26.97
2022-08-02T19:32:41.646Z,26.86
2022-08-02T19:35:19.422Z,26.75
2022-08-02T19:37:59.255Z,26.47
2022-08-02T19:40:29.021Z,26.37
2022-08-02T19:44:23.173Z,26.28
2022-08-02T19:45:49.830Z,26.22
2022-08-02T19:48:23.513Z,26.29
2022-08-02T19:50:56.790Z,26.24
2022-08-02T19:53:46.495Z,26.20
2022-08-02T19:56:24.779Z,25.99
2022-08-02T19:58:54.827Z,25.80
2022-08-02T20:01:37.211Z,25.68
2022-08-02T20:04:13.073Z,25.54
2022-08-02T20:06:46.136Z,25.57
2022-08-02T20:09:17.143Z,25.41
2022-08-02T20:11:54.850Z,25.30
2022-08-02T20:14:26.734Z,25.20
2022-08-02T20:16:58.160Z,25.28
2022-08-02T20:19:29.197Z,25.35
2022-08-02T20:22:00.040Z,25.32
2022-08-02T20:24:28.405Z,25.21
2022-08-02T20:26:59.177Z,25.21
2022-08-02T20:29:43.114Z,25.22
2022-08-02T20:32:11.842Z,25.16
2022-08-02T20:34:38.959Z,25.03
2022-08-02T20:37:55.971Z,25.04
2022-08-02T20:39:53.728Z,24.90
2022-08-02T20:42:23.362Z,24.89
2022-08-02T20:44:55.810Z,24.82
2022-08-02T20:47:38.875Z,24.71
2022-08-02T20:50:30.497Z,24.58
2022-08-02T20:53:03.218Z,24.59
2022-08-02T20:55:31.979Z,24.53
2022-08-02T20:58:04.436Z,24.59
2022-08-02T21:00:32.209Z,24.56
2022-08-02T21:03:00.754Z,24.37
2022-08-02T21:05:54.240Z,24.30
2022-08-02T21:08:20.542Z,24.41
2022-08-02T21:10:52.209Z,24.51
2022-08-02T21:13:22.427Z,24.44
2022-08-02T21:15:55.048Z,24.41
2022-08-02T21:18:30.539Z,24.29
2022-08-02T21:21:00.707Z,24.05
2022-08-02T21:23:28.696Z,24.05
2022-08-02T21:25:57.902Z,24.04
2022-08-02T21:28:43.611Z,24.00
2022-08-02T21:31:15.830Z,23.93
2022-08-02T21:33:57.499Z,23.84
2022-08-02T21:36:32.983Z,23.85
2022-08-02T21:39:09.228Z,23.74
2022-08-02T21:41:46.442Z,23.63
2022-08-02T21:44:21.588Z,23.66
2022-08-02T21:46:53.301Z,23.74
2022-08-02T21:49:40.707Z,23.68
2022-08-02T21:52:10.378Z,23.59
2022-08-02T21:54:39.638Z,23.46
2022-08-02T21:59:55.424Z,23.52
2022-08-02T22:02:30.937Z,23.51
2022-08-02T22:04:58.551Z,23.35
2022-08-02T22:07:25.527Z,23.19
2022-08-02T22:09:53.379Z,23.18
2022-08-02T22:12:21.910Z,23.18
2022-08-02T22:14:55.729Z,23.10
2022-08-02T22:17:52.317Z,23.22
2022-08-02T22:20:15.422Z,23.32
2022-08-02T22:22:44.936Z,23.26
2022-08-02T22:25:26.803Z,23.14
2022-08-02T22:28:35.762Z,22.98
2022-08-02T22:30:51.156Z,22.92
2022-08-02T22:33:42.584Z,22.82
2022-08-02T22:36:18.502Z,22.70
2022-08-02T22:38:47.185Z,22.74
2022-08-02T22:41:15.735Z,22.79
2022-08-02T22:43:43.427Z,22.76
2022-08-02T22:46:15.422Z,22.75
2022-08-02T22:48:45.436Z,22.87
2022-08-02T22:51:14.495Z,22.98
2022-08-02T22:53:43.976Z,22.98
2022-08-02T22:56:12.765Z,22.89
2022-08-02T22:59:03.804Z,23.49
2022-08-02T22:59:11.274Z,22.74
2022-08-02T23:01:29.818Z,22.51
2022-08-02T23:03:56.793Z,22.25
2022-08-02T23:06:23.589Z,22.17
2022-08-02T23:08:50.558Z,22.19
2022-08-02T23:11:17.648Z,22.22
2022-08-02T23:13:44.769Z,22.16
2022-08-02T23:16:30.503Z,22.20
2022-08-02T23:19:15.743Z,22.29
2022-08-02T23:22:02.043Z,22.24
2022-08-02T23:24:30.453Z,22.31
2022-08-02T23:26:57.516Z,22.44
2022-08-02T23:29:24.563Z,22.29
2022-08-02T23:31:51.504Z,22.09
2022-08-02T23:34:19.909Z,21.95
2022-08-02T23:36:46.752Z,21.90
2022-08-02T23:39:13.641Z,21.87
2022-08-02T23:41:40.726Z,21.85
2022-08-02T23:44:15.434Z,21.91
2022-08-02T23:46:47.136Z,21.86
2022-08-02T23:49:16.686Z,21.80
2022-08-02T23:51:44.019Z,21.71
2022-08-02T23:54:12.312Z,21.75
2022-08-02T23:56:40.800Z,21.85
2022-08-02T23:59:08.688Z,21.87
